createdAt,value
2023-01-27T00:00:30.412Z,24.90
2023-01-27T00:01:53.244Z,22.30
2023-01-27T00:02:56.182Z,22.90
2023-01-27T00:04:00.191Z,24.20
2023-01-27T00:05:03.800Z,22.00
2023-01-27T00:06:12.133Z,18.90
2023-01-27T00:07:15.375Z,20.40
2023-01-27T00:08:20.070Z,20.60
2023-01-27T00:09:23.552Z,22.10
2023-01-27T00:10:27.316Z,17.50
2023-01-27T00:11:48.763Z,21.00
2023-01-27T00:13:10.609Z,18.80
2023-01-27T00:14:13.602Z,22.60
2023-01-27T00:15:17.102Z,23.10
2023-01-27T00:16:20.258Z,23.00
2023-01-27T00:17:23.254Z,21.70
2023-01-27T00:18:26.467Z,21.70
2023-01-27T00:19:29.297Z,19.80
2023-01-27T00:20:51.325Z,19.30
2023-01-27T00:22:15.195Z,22.40
2023-01-27T00:23:43.800Z,22.00
2023-01-27T00:24:46.796Z,22.10
2023-01-27T00:25:51.020Z,20.10
2023-01-27T00:26:53.948Z,21.30
2023-01-27T00:27:56.894Z,20.40
2023-01-27T00:29:01.868Z,22.70
2023-01-27T00:30:08.303Z,21.80
2023-01-27T00:31:32.671Z,19.30
2023-01-27T00:32:54.296Z,19.20
2023-01-27T00:34:09.934Z,17.60
2023-01-27T00:35:16.771Z,18.70
2023-01-27T00:36:20.156Z,20.50
2023-01-27T00:37:23.371Z,19.70
2023-01-27T00:38:31.569Z,19.50
2023-01-27T00:39:34.774Z,19.10
2023-01-27T00:40:39.544Z,19.40
2023-01-27T00:41:42.512Z,17.30
2023-01-27T00:42:45.660Z,21.00
2023-01-27T00:43:55.198Z,17.40
2023-01-27T00:45:18.823Z,17.20
2023-01-27T00:46:23.943Z,16.50
2023-01-27T00:47:27.102Z,19.60
2023-01-27T00:48:29.953Z,17.60
2023-01-27T00:49:33.495Z,16.80
2023-01-27T00:50:38.999Z,17.70
2023-01-27T00:51:44.873Z,16.00
2023-01-27T00:52:48.023Z,17.00
2023-01-27T00:53:52.207Z,17.90
2023-01-27T00:54:55.029Z,18.10
2023-01-27T00:55:58.354Z,17.80
2023-01-27T00:57:01.348Z,16.60
2023-01-27T00:58:04.440Z,16.20
2023-01-27T00:59:07.425Z,16.70
2023-01-27T01:00:12.560Z,17.40
2023-01-27T01:01:16.990Z,17.90
2023-01-27T01:02:19.903Z,17.10
2023-01-27T01:03:24.686Z,16.00
2023-01-27T01:04:27.806Z,18.50
2023-01-27T01:05:30.735Z,18.90
2023-01-27T01:06:34.589Z,17.90
2023-01-27T01:07:40.002Z,21.00
2023-01-27T01:08:44.819Z,20.00
2023-01-27T01:09:47.974Z,19.70
2023-01-27T01:10:51.561Z,18.60
2023-01-27T01:11:54.645Z,21.50
2023-01-27T01:12:57.885Z,20.60
2023-01-27T01:14:00.794Z,22.20
2023-01-27T01:15:03.950Z,21.80
2023-01-27T01:16:10.529Z,18.50
2023-01-27T01:17:14.199Z,19.60
2023-01-27T01:18:17.256Z,23.10
2023-01-27T01:19:20.082Z,21.80
2023-01-27T01:20:24.219Z,23.30
2023-01-27T01:21:27.092Z,22.10
2023-01-27T01:22:31.159Z,20.60
2023-01-27T01:23:37.962Z,20.80
2023-01-27T01:24:40.820Z,21.40
2023-01-27T01:25:43.650Z,19.10
2023-01-27T01:26:46.706Z,21.10
2023-01-27T01:27:50.268Z,20.20
2023-01-27T01:28:53.229Z,20.70
2023-01-27T01:29:56.216Z,20.10
2023-01-27T01:31:07.254Z,20.60
2023-01-27T01:32:11.116Z,19.90
2023-01-27T01:33:14.366Z,21.00
2023-01-27T01:34:17.603Z,20.10
2023-01-27T01:35:21.634Z,18.70
2023-01-27T01:36:25.532Z,19.20
2023-01-27T01:37:28.716Z,18.80
2023-01-27T01:38:31.893Z,21.30
2023-01-27T01:39:34.961Z,21.10
2023-01-27T01:40:41.779Z,21.20
2023-01-27T01:41:45.577Z,19.70
2023-01-27T01:42:57.254Z,19.40
2023-01-27T01:44:25.146Z,17.90
2023-01-27T01:45:31.384Z,20.90
2023-01-27T01:46:34.253Z,18.20
2023-01-27T01:47:38.421Z,20.40
2023-01-27T01:48:47.789Z,19.90
2023-01-27T01:49:51.149Z,20.70
2023-01-27T01:51:01.932Z,21.50
2023-01-27T01:52:13.832Z,23.10
2023-01-27T01:53:21.765Z,23.20
2023-01-27T01:54:33.639Z,20.00
2023-01-27T01:55:40.173Z,21.10
2023-01-27T01:57:05.374Z,21.50
2023-01-27T01:58:13.203Z,19.10
2023-01-27T01:59:30.875Z,19.70
2023-01-27T02:00:35.045Z,21.10
2023-01-27T02:01:41.169Z,22.70
2023-01-27T02:02:46.105Z,21.80
2023-01-27T02:03:54.560Z,22.40
2023-01-27T02:05:11.799Z,22.20
2023-01-27T02:06:17.614Z,24.10
2023-01-27T02:07:46.012Z,22.70
2023-01-27T02:08:52.118Z,22.30
2023-01-27T02:10:02.384Z,21.80
2023-01-27T02:11:08.760Z,19.30
2023-01-27T02:12:13.585Z,19.80
2023-01-27T02:13:18.070Z,20.40
2023-01-27T02:14:21.073Z,22.00
2023-01-27T02:15:26.988Z,21.70
2023-01-27T02:16:30.468Z,22.60
2023-01-27T02:17:35.975Z,21.40
2023-01-27T02:18:41.896Z,20.30
2023-01-27T02:20:26.846Z,23.00
2023-01-27T02:21:31.107Z,22.60
2023-01-27T02:22:54.479Z,21.50
2023-01-27T02:24:10.953Z,21.90
2023-01-27T02:25:28.780Z,20.50
2023-01-27T02:26:54.655Z,24.10
2023-01-27T02:27:57.551Z,23.00
2023-01-27T02:29:08.098Z,23.50
2023-01-27T02:30:13.335Z,23.50
